Time;durP1;ratioP1;P1;durP2;ratioP2;P2;SDS_P1;SDS_P2;PMS_P1;PMS_P2;Temp;Humidity;BMP_temperature;BMP_pressure;BME280_temperature;BME280_humidity;BME280_pressure;Samples;Min_cycle;Max_cycle;Signal;HPM_P1;HPM_P2
2021/12/26 00:01:04;;;;;;;;;;;;;;;0.69;70.97;100139.31;4975436;28;20025;-70
2021/12/26 00:03:30;;;;;;;;;;;;;;;0.61;70.95;100134.56;4972308;28;19911;-68
2021/12/26 00:05:55;;;;;;;;;;;;;;;0.60;70.93;100135.47;4968265;28;20205;-68
2021/12/26 00:08:21;;;;;;;;;;;;;;;0.63;71.01;100131.88;4972117;28;20402;-68
2021/12/26 00:10:48;;;;;;;;;;;;;;;0.65;70.73;100140.44;4966298;28;20241;-68
2021/12/26 00:13:13;;;;;;;;;;;;;;;0.69;71.08;100139.31;4977107;28;20055;-68
2021/12/26 00:15:39;;;;;;;;;;;;;;;0.70;70.49;100138.41;4970316;28;20424;-68
2021/12/26 00:18:04;;;;;;;;;;;;;;;0.64;70.58;100134.38;4972844;28;20044;-68
2021/12/26 00:20:29;;;;;;;;;;;;;;;0.60;70.87;100138.09;4976530;28;19941;-70
2021/12/26 00:22:54;;;;;;;;;;;;;;;0.55;71.40;100127.13;4958093;28;20422;-68
2021/12/26 00:25:20;;;;;;;;;;;;;;;0.58;71.42;100123.47;4975145;28;19904;-68
2021/12/26 00:27:45;;;;;;;;;;;;;;;0.64;70.53;100120.53;4974606;28;19913;-70
2021/12/26 00:30:11;;;;;;;;;;;;;;;0.75;70.49;100132.91;4982980;28;19907;-68
2021/12/26 00:32:37;;;;;;;;;;;;;;;0.74;70.63;100124.28;4972721;28;19924;-68
2021/12/26 00:35:02;;;;;;;;;;;;;;;0.75;70.25;100112.94;4966306;28;19956;-68
2021/12/26 00:37:27;;;;;;;;;;;;;;;0.66;70.30;100119.53;4962705;28;19913;-69
2021/12/26 00:39:54;;;;;;;;;;;;;;;0.62;70.74;100120.63;4968154;28;20368;-68
2021/12/26 00:42:19;;;;;;;;;;;;;;;0.64;71.17;100121.34;4965687;28;19915;-69
2021/12/26 00:44:44;;;;;;;;;;;;;;;0.70;71.19;100106.31;4971481;28;19921;-70
2021/12/26 00:47:10;;;;;;;;;;;;;;;0.72;70.65;100107.06;4957096;28;19905;-69
2021/12/26 00:49:35;;;;;;;;;;;;;;;0.67;70.28;100102.13;4951367;28;19961;-69
2021/12/26 00:52:01;;;;;;;;;;;;;;;0.75;70.63;100099.06;4969534;28;20051;-70
2021/12/26 00:54:26;;;;;;;;;;;;;;;0.71;71.16;100102.81;4968709;28;19924;-68
2021/12/26 00:56:51;;;;;;;;;;;;;;;0.81;70.48;100093.50;4966884;28;19913;-67
2021/12/26 00:59:16;;;;;;;;;;;;;;;0.79;70.17;100097.94;4974399;28;20633;-68
2021/12/26 01:01:42;;;;;;;;;;;;;;;0.92;69.81;100103.31;4973117;28;20260;-68
2021/12/26 01:04:07;;;;;;;;;;;;;;;0.76;70.22;100095.53;4965574;28;20348;-67
2021/12/26 01:06:32;;;;;;;;;;;;;;;0.68;70.69;100099.44;4965019;28;20496;-70
2021/12/26 01:08:57;;;;;;;;;;;;;;;0.64;70.87;100094.50;4958351;28;20400;-69
2021/12/26 01:11:36;;;;;;;;;;;;;;;0.70;70.63;100095.91;4972001;28;20781;-68
2021/12/26 01:14:04;;;;;;;;;;;;;;;0.75;70.46;100088.63;4972121;28;19933;-68
2021/12/26 01:16:29;;;;;;;;;;;;;;;0.76;70.71;100090.31;4970514;28;19905;-70
2021/12/26 01:19:00;;;;;;;;;;;;;;;0.74;70.96;100085.22;4968065;28;19970;-70
2021/12/26 01:21:26;;;;;;;;;;;;;;;0.79;70.35;100090.13;4972757;28;20636;-70
2021/12/26 01:23:55;;;;;;;;;;;;;;;0.71;70.27;100097.59;4965033;28;19966;-69
2021/12/26 01:26:21;;;;;;;;;;;;;;;0.74;70.27;100092.19;4969597;28;20500;-70
2021/12/26 01:28:46;;;;;;;;;;;;;;;0.78;70.74;100093.69;4973366;28;20013;-69
2021/12/26 01:31:13;;;;;;;;;;;;;;;0.81;70.69;100098.72;4967285;28;19966;-69
2021/12/26 01:33:38;;;;;;;;;;;;;;;0.84;70.21;100103.75;4976534;28;19920;-69
2021/12/26 01:36:04;;;;;;;;;;;;;;;0.83;70.21;100104.66;4965647;28;20320;-69
2021/12/26 01:38:29;;;;;;;;;;;;;;;0.85;70.64;100105.44;4967039;28;20386;-69
2021/12/26 01:40:55;;;;;;;;;;;;;;;0.89;70.43;100104.31;4968833;28;20311;-68
2021/12/26 01:43:21;;;;;;;;;;;;;;;0.90;70.42;100103.38;4954374;28;20152;-69
2021/12/26 01:45:47;;;;;;;;;;;;;;;0.85;70.73;100095.00;4952001;28;19982;-68
2021/12/26 01:48:12;;;;;;;;;;;;;;;0.83;70.83;100094.25;4949150;28;19950;-68
2021/12/26 01:50:41;;;;;;;;;;;;;;;0.88;70.39;100105.25;4951879;28;20205;-68
2021/12/26 01:53:06;;;;;;;;;;;;;;;0.93;70.54;100104.97;4944945;28;20029;-68
2021/12/26 01:55:46;;;;;;;;;;;;;;;0.99;70.08;100113.25;4952137;28;19908;-69
2021/12/26 01:58:12;;;;;;;;;;;;;;;1.06;70.27;100107.66;4944689;28;20021;-68
2021/12/26 02:00:38;;;;;;;;;;;;;;;0.99;70.19;100097.63;4953528;28;20341;-68
2021/12/26 02:03:03;;;;;;;;;;;;;;;1.01;69.88;100094.94;4955697;28;19916;-68
2021/12/26 02:05:28;;;;;;;;;;;;;;;0.88;70.41;100096.59;4967161;28;19924;-68
2021/12/26 02:07:54;;;;;;;;;;;;;;;0.91;70.88;100104.22;4965275;28;19912;-68
2021/12/26 02:10:19;;;;;;;;;;;;;;;0.89;70.32;100091.28;4965437;28;20824;-68
2021/12/26 02:12:44;;;;;;;;;;;;;;;0.88;70.68;100094.81;4951540;28;20722;-68
2021/12/26 02:15:09;;;;;;;;;;;;;;;0.84;71.41;100086.34;4948207;28;20336;-68
2021/12/26 02:17:35;;;;;;;;;;;;;;;0.93;71.40;100082.38;4955053;28;20489;-68
2021/12/26 02:20:15;;;;;;;;;;;;;;;0.93;71.54;100082.38;4953165;28;19905;-68
2021/12/26 02:22:45;;;;;;;;;;;;;;;0.99;70.98;100087.22;4973556;28;20671;-68
2021/12/26 02:25:28;;;;;;;;;;;;;;;0.96;72.12;100084.78;4968777;28;19920;-67
2021/12/26 02:27:53;;;;;;;;;;;;;;;1.00;71.13;100086.28;4971825;28;19953;-68
2021/12/26 02:30:19;;;;;;;;;;;;;;;0.98;71.38;100082.91;4971085;28;20060;-70
2021/12/26 02:32:49;;;;;;;;;;;;;;;0.94;70.98;100078.81;4973036;28;19925;-68
2021/12/26 02:35:14;;;;;;;;;;;;;;;0.99;71.67;100091.59;4967516;28;20026;-68
2021/12/26 02:37:39;;;;;;;;;;;;;;;0.93;71.49;100082.38;4958763;28;20423;-69
2021/12/26 02:40:05;;;;;;;;;;;;;;;0.84;71.66;100078.53;4967177;28;20391;-69
2021/12/26 02:42:30;;;;;;;;;;;;;;;0.91;71.72;100076.41;4966666;28;20317;-69
2021/12/26 02:44:55;;;;;;;;;;;;;;;0.86;71.27;100075.81;4973673;28;20498;-68
2021/12/26 02:47:31;;;;;;;;;;;;;;;0.77;72.41;100071.19;4951397;28;20126;-68
2021/12/26 02:50:00;;;;;;;;;;;;;;;0.90;72.01;100071.28;4972106;28;19997;-68
2021/12/26 02:52:25;;;;;;;;;;;;;;;0.92;71.86;100075.47;4956171;28;20294;-68
2021/12/26 02:54:51;;;;;;;;;;;;;;;0.90;72.04;100072.13;4953601;28;20609;-68
2021/12/26 02:57:16;;;;;;;;;;;;;;;0.99;71.80;100073.34;4966758;28;20417;-68
2021/12/26 02:59:41;;;;;;;;;;;;;;;1.03;71.77;100072.25;4971232;28;20021;-69
2021/12/26 03:02:06;;;;;;;;;;;;;;;0.96;71.92;100071.75;4973868;28;19911;-68
2021/12/26 03:04:31;;;;;;;;;;;;;;;0.94;71.79;100068.41;4968579;28;19908;-68
2021/12/26 03:07:02;;;;;;;;;;;;;;;0.96;71.69;100079.56;4973182;28;19919;-68
2021/12/26 03:09:30;;;;;;;;;;;;;;;0.89;72.23;100077.41;4966984;28;19909;-69
2021/12/26 03:11:55;;;;;;;;;;;;;;;0.81;72.10;100077.88;4945254;28;20034;-67
2021/12/26 03:14:20;;;;;;;;;;;;;;;0.96;71.68;100082.19;4971137;28;19916;-68
2021/12/26 03:16:49;;;;;;;;;;;;;;;0.92;71.82;100085.91;4956544;28;19935;-69
2021/12/26 03:19:14;;;;;;;;;;;;;;;0.98;72.10;100085.53;4948680;28;20021;-68
2021/12/26 03:21:39;;;;;;;;;;;;;;;0.92;72.11;100074.66;4952905;28;19905;-66
2021/12/26 03:24:05;;;;;;;;;;;;;;;0.89;71.86;100072.19;4958107;28;19957;-68
2021/12/26 03:26:30;;;;;;;;;;;;;;;0.91;72.39;100073.78;4959206;28;20017;-68
2021/12/26 03:28:55;;;;;;;;;;;;;;;0.95;72.92;100075.28;4958401;28;20319;-67
2021/12/26 03:31:20;;;;;;;;;;;;;;;0.95;72.10;100070.06;4957257;28;20557;-70
2021/12/26 03:33:45;;;;;;;;;;;;;;;1.03;72.55;100069.63;4976183;28;20601;-69
2021/12/26 03:36:11;;;;;;;;;;;;;;;0.98;72.16;100074.28;4965059;28;20346;-70
2021/12/26 03:38:37;;;;;;;;;;;;;;;1.02;72.27;100070.56;4964101;28;20704;-70
2021/12/26 03:41:02;;;;;;;;;;;;;;;0.99;72.22;100068.97;4967613;28;20711;-70
2021/12/26 03:43:27;;;;;;;;;;;;;;;1.02;72.93;100063.56;4972865;28;19936;-69
2021/12/26 03:45:55;;;;;;;;;;;;;;;1.00;72.50;100067.19;4975861;28;20013;-69
2021/12/26 03:48:21;;;;;;;;;;;;;;;1.01;72.50;100067.09;4967564;28;20208;-69
2021/12/26 03:50:46;;;;;;;;;;;;;;;0.99;72.34;100061.16;4972635;28;21038;-68
2021/12/26 03:53:12;;;;;;;;;;;;;;;1.02;72.54;100060.97;4972195;28;19923;-69
2021/12/26 03:55:37;;;;;;;;;;;;;;;1.02;72.81;100060.97;4972872;28;20874;-68
2021/12/26 03:58:02;;;;;;;;;;;;;;;1.01;72.68;100051.47;4964865;28;19990;-68
2021/12/26 04:00:27;;;;;;;;;;;;;;;1.00;72.66;100054.16;4972001;28;19912;-68
2021/12/26 04:02:53;;;;;;;;;;;;;;;1.03;73.44;100052.22;4982002;28;19913;-68
2021/12/26 04:05:18;;;;;;;;;;;;;;;1.11;73.13;100051.75;4969589;28;20935;-69
2021/12/26 04:07:43;;;;;;;;;;;;;;;1.16;73.05;100043.66;4969277;28;20004;-70
2021/12/26 04:10:09;;;;;;;;;;;;;;;1.20;72.62;100042.56;4949482;28;19912;-68
2021/12/26 04:12:36;;;;;;;;;;;;;;;1.16;72.75;100041.06;4971770;28;19920;-70
2021/12/26 04:15:05;;;;;;;;;;;;;;;1.13;72.42;100043.84;4965678;28;20183;-69
2021/12/26 04:17:31;;;;;;;;;;;;;;;1.09;73.03;100042.38;4971540;28;19917;-69
2021/12/26 04:19:56;;;;;;;;;;;;;;;1.14;72.46;100048.97;4978656;28;20000;-68
2021/12/26 04:22:21;;;;;;;;;;;;;;;1.20;72.38;100048.59;4970064;28;20005;-68
2021/12/26 04:24:46;;;;;;;;;;;;;;;1.21;73.24;100049.41;4977736;28;19917;-68
2021/12/26 04:27:11;;;;;;;;;;;;;;;1.23;72.60;100052.78;4972985;28;20088;-68
2021/12/26 04:29:37;;;;;;;;;;;;;;;1.22;72.57;100050.28;4973755;28;19909;-69
2021/12/26 04:32:02;;;;;;;;;;;;;;;1.23;72.98;100042.34;4972283;28;20132;-69
2021/12/26 04:34:27;;;;;;;;;;;;;;;1.23;73.02;100042.34;4985412;28;20141;-69
2021/12/26 04:36:52;;;;;;;;;;;;;;;1.31;73.36;100042.72;4965246;28;19916;-69
2021/12/26 04:39:18;;;;;;;;;;;;;;;1.32;72.79;100040.94;4961563;28;20891;-69
2021/12/26 04:41:45;;;;;;;;;;;;;;;1.27;72.76;100038.63;4959724;28;20603;-69
2021/12/26 04:44:11;;;;;;;;;;;;;;;1.30;72.69;100038.44;4966232;28;19939;-68
2021/12/26 04:46:36;;;;;;;;;;;;;;;1.30;73.11;100030.63;4953611;28;20015;-68
2021/12/26 04:49:02;;;;;;;;;;;;;;;1.34;72.84;100039.94;4954590;28;19941;-68
2021/12/26 04:51:27;;;;;;;;;;;;;;;1.29;72.74;100031.53;4951483;28;19905;-68
2021/12/26 04:53:52;;;;;;;;;;;;;;;1.31;72.95;100034.91;4953926;28;20721;-68
2021/12/26 04:56:17;;;;;;;;;;;;;;;1.34;72.93;100034.72;4957889;28;20901;-69
2021/12/26 04:58:42;;;;;;;;;;;;;;;1.37;72.59;100036.31;4951496;28;20037;-69
2021/12/26 05:01:08;;;;;;;;;;;;;;;1.33;72.52;100033.03;4948909;28;20011;-68
2021/12/26 05:03:33;;;;;;;;;;;;;;;1.28;72.85;100035.06;4953535;28;19905;-69
2021/12/26 05:05:58;;;;;;;;;;;;;;;1.26;72.93;100034.34;4957947;28;20153;-71
2021/12/26 05:08:23;;;;;;;;;;;;;;;1.26;72.57;100029.13;4967303;28;19973;-68
2021/12/26 05:10:49;;;;;;;;;;;;;;;1.19;73.06;100031.28;4973807;28;19909;-69
2021/12/26 05:13:14;;;;;;;;;;;;;;;1.12;73.30;100019.56;4967868;28;20064;-68
2021/12/26 05:15:40;;;;;;;;;;;;;;;1.12;73.56;100018.72;4976110;28;20314;-69
2021/12/26 05:18:06;;;;;;;;;;;;;;;1.07;73.93;100020.75;4967529;28;19912;-69
2021/12/26 05:20:31;;;;;;;;;;;;;;;1.15;73.69;100028.97;4972126;28;19911;-69
2021/12/26 05:22:56;;;;;;;;;;;;;;;1.18;73.25;100028.75;4974649;28;20776;-70
2021/12/26 05:25:21;;;;;;;;;;;;;;;1.18;73.38;100034.84;4976483;28;20641;-67
2021/12/26 05:27:47;;;;;;;;;;;;;;;1.22;73.08;100039.84;4973430;28;19923;-66
2021/12/26 05:30:13;;;;;;;;;;;;;;;1.26;72.88;100031.75;4964264;28;19909;-70
2021/12/26 05:32:39;;;;;;;;;;;;;;;1.30;73.78;100030.63;4970587;28;20835;-70
2021/12/26 05:35:04;;;;;;;;;;;;;;;1.32;73.27;100033.94;4980929;28;19909;-69
2021/12/26 05:37:29;;;;;;;;;;;;;;;1.29;73.07;100035.94;4962003;28;19908;-68
2021/12/26 05:39:56;;;;;;;;;;;;;;;1.35;73.36;100025.97;4965008;28;20019;-70
2021/12/26 05:42:21;;;;;;;;;;;;;;;1.35;73.80;100039.00;4968502;28;19917;-67
2021/12/26 05:44:48;;;;;;;;;;;;;;;1.29;73.81;100031.53;4957069;28;20379;-67
2021/12/26 05:47:13;;;;;;;;;;;;;;;1.34;73.41;100028.66;4960422;28;20645;-68
2021/12/26 05:49:38;;;;;;;;;;;;;;;1.25;73.77;100029.22;4949395;28;19913;-68
2021/12/26 05:52:04;;;;;;;;;;;;;;;1.23;74.05;100026.72;4931187;28;19914;-69
2021/12/26 05:54:29;;;;;;;;;;;;;;;1.27;73.57;100033.41;4931838;28;19925;-68
2021/12/26 05:56:54;;;;;;;;;;;;;;;1.30;73.37;100043.66;4959627;28;19913;-68
2021/12/26 05:59:19;;;;;;;;;;;;;;;1.28;73.55;100040.28;4936215;28;19915;-69
2021/12/26 06:01:45;;;;;;;;;;;;;;;1.28;73.73;100035.06;4955443;28;19904;-67
2021/12/26 06:04:10;;;;;;;;;;;;;;;1.34;73.42;100020.81;4955570;28;19905;-67
2021/12/26 06:06:35;;;;;;;;;;;;;;;1.26;73.80;100020.50;4952210;28;19916;-69
2021/12/26 06:09:00;;;;;;;;;;;;;;;1.23;74.03;100010.22;4964785;28;20930;-67
2021/12/26 06:11:26;;;;;;;;;;;;;;;1.26;73.75;100025.69;4955038;28;20413;-70
2021/12/26 06:13:51;;;;;;;;;;;;;;;1.26;74.06;100018.72;4953897;28;19939;-70
2021/12/26 06:16:16;;;;;;;;;;;;;;;1.19;74.28;100015.63;4970537;28;20266;-68
2021/12/26 06:18:41;;;;;;;;;;;;;;;1.24;74.14;100022.34;4985288;28;20343;-70
2021/12/26 06:21:06;;;;;;;;;;;;;;;1.21;74.04;100025.97;4965096;28;20059;-69
2021/12/26 06:23:32;;;;;;;;;;;;;;;1.23;73.83;100016.28;4973053;28;20081;-70
2021/12/26 06:25:57;;;;;;;;;;;;;;;1.31;74.49;100021.88;4963244;28;19950;-70
2021/12/26 06:28:22;;;;;;;;;;;;;;;1.25;74.28;100011.81;4974077;28;19905;-70
2021/12/26 06:30:47;;;;;;;;;;;;;;;1.25;74.12;100013.59;4989225;28;19962;-69
2021/12/26 06:33:13;;;;;;;;;;;;;;;1.22;74.73;100004.19;4964515;28;19928;-68
2021/12/26 06:35:38;;;;;;;;;;;;;;;1.25;74.60;100014.41;4967456;28;19995;-68
2021/12/26 06:38:03;;;;;;;;;;;;;;;1.24;74.27;100007.56;4947088;28;19969;-68
2021/12/26 06:40:28;;;;;;;;;;;;;;;1.22;73.94;100001.59;4940103;28;20009;-67
2021/12/26 06:42:53;;;;;;;;;;;;;;;1.22;74.25;100013.78;4933711;28;19916;-70
2021/12/26 06:45:19;;;;;;;;;;;;;;;1.26;74.28;100004.84;4936678;28;19917;-70
2021/12/26 06:47:49;;;;;;;;;;;;;;;1.18;74.85;100006.16;4915456;28;20348;-69
2021/12/26 06:50:15;;;;;;;;;;;;;;;1.20;74.41;100009.50;4933167;28;19905;-69
2021/12/26 06:52:41;;;;;;;;;;;;;;;1.22;74.29;99998.16;4931363;28;19909;-69
2021/12/26 06:55:06;;;;;;;;;;;;;;;1.28;74.81;100009.00;4935021;28;19901;-69
2021/12/26 06:57:31;;;;;;;;;;;;;;;1.27;74.67;100009.97;4913473;28;20291;-68
2021/12/26 06:59:56;;;;;;;;;;;;;;;1.25;74.64;100013.59;4931867;28;19901;-68
2021/12/26 07:02:22;;;;;;;;;;;;;;;1.25;74.52;100005.78;4931850;28;20078;-68
2021/12/26 07:04:47;;;;;;;;;;;;;;;1.26;74.90;99994.44;4932312;28;20573;-68
2021/12/26 07:07:13;;;;;;;;;;;;;;;1.29;74.74;99996.84;4939331;28;19936;-68
2021/12/26 07:09:39;;;;;;;;;;;;;;;1.27;74.79;100007.34;4957862;28;20396;-68
2021/12/26 07:12:04;;;;;;;;;;;;;;;1.32;74.97;100010.50;4951675;28;19904;-68
2021/12/26 07:14:30;;;;;;;;;;;;;;;1.35;74.81;100019.91;4947110;28;19966;-69
2021/12/26 07:16:55;;;;;;;;;;;;;;;1.33;75.13;100021.78;4942328;28;20370;-69
2021/12/26 07:19:20;;;;;;;;;;;;;;;1.39;74.67;100030.97;4933806;28;20348;-70
2021/12/26 07:21:45;;;;;;;;;;;;;;;1.43;74.35;100024.66;4946864;28;20014;-67
2021/12/26 07:24:10;;;;;;;;;;;;;;;1.47;74.75;100041.78;4945101;28;19909;-67
2021/12/26 07:26:36;;;;;;;;;;;;;;;1.46;74.76;100035.72;4936166;28;19913;-68
2021/12/26 07:29:01;;;;;;;;;;;;;;;1.51;74.21;100038.06;4925390;28;19913;-70
2021/12/26 07:31:27;;;;;;;;;;;;;;;1.45;74.51;100041.03;4942158;28;20750;-70
2021/12/26 07:33:52;;;;;;;;;;;;;;;1.48;74.28;100046.03;4987341;28;20106;-70
2021/12/26 07:36:18;;;;;;;;;;;;;;;1.46;74.49;100032.28;4967823;28;20495;-70
2021/12/26 07:38:43;;;;;;;;;;;;;;;1.51;74.19;100044.09;4966129;28;19935;-68
2021/12/26 07:41:08;;;;;;;;;;;;;;;1.51;74.26;100036.25;4957639;28;19953;-66
2021/12/26 07:43:33;;;;;;;;;;;;;;;1.52;74.44;100039.69;4950681;28;20033;-67
2021/12/26 07:45:59;;;;;;;;;;;;;;;1.49;75.11;100038.13;4958576;28;19917;-67
2021/12/26 07:48:24;;;;;;;;;;;;;;;1.49;75.11;100032.06;4969302;28;19909;-67
2021/12/26 07:50:49;;;;;;;;;;;;;;;1.55;74.92;100036.91;4951287;28;20365;-67
2021/12/26 07:53:14;;;;;;;;;;;;;;;1.64;74.41;100036.31;4972461;28;20364;-67
2021/12/26 07:55:39;;;;;;;;;;;;;;;1.56;74.84;100025.53;4956604;28;20185;-67
2021/12/26 07:58:05;;;;;;;;;;;;;;;1.50;74.92;100036.38;4970772;28;19904;-67
2021/12/26 08:00:30;;;;;;;;;;;;;;;1.53;75.36;100023.13;4972140;28;19916;-68
2021/12/26 08:02:55;;;;;;;;;;;;;;;1.58;74.88;100021.09;4955737;28;20016;-68
2021/12/26 08:05:21;;;;;;;;;;;;;;;1.59;74.77;100027.94;4950914;28;20311;-69
2021/12/26 08:07:46;;;;;;;;;;;;;;;1.57;74.34;100024.63;4964003;28;20289;-69
2021/12/26 08:10:11;;;;;;;;;;;;;;;1.59;74.29;100024.50;4961195;28;20020;-68
2021/12/26 08:12:36;;;;;;;;;;;;;;;1.63;74.60;100024.22;4971048;28;19911;-69
2021/12/26 08:15:02;;;;;;;;;;;;;;;1.62;74.34;100035.59;4938091;28;19942;-69
2021/12/26 08:17:30;;;;;;;;;;;;;;;1.63;74.25;100037.25;4973418;28;20868;-67
2021/12/26 08:19:56;;;;;;;;;;;;;;;1.68;74.51;100031.78;4956430;28;20599;-67
2021/12/26 08:22:21;;;;;;;;;;;;;;;1.66;74.17;100026.63;4952621;28;19905;-69
2021/12/26 08:24:46;;;;;;;;;;;;;;;1.69;74.41;100033.41;4955350;28;20017;-70
2021/12/26 08:27:12;;;;;;;;;;;;;;;1.70;74.56;100032.50;4955328;28;19908;-69
2021/12/26 08:29:37;;;;;;;;;;;;;;;1.76;74.10;100031.25;4937836;28;19919;-69
2021/12/26 08:32:02;;;;;;;;;;;;;;;1.70;74.62;100030.72;4952831;28;20010;-68
2021/12/26 08:34:27;;;;;;;;;;;;;;;1.73;74.43;100028.84;4954540;28;19984;-67
2021/12/26 08:37:03;;;;;;;;;;;;;;;1.82;74.54;100028.25;4958429;28;20230;-68
2021/12/26 08:39:29;;;;;;;;;;;;;;;1.75;74.81;100034.81;4948217;28;19912;-69
2021/12/26 08:41:54;;;;;;;;;;;;;;;1.80;74.59;100024.91;4958196;28;19993;-69
2021/12/26 08:44:19;;;;;;;;;;;;;;;1.87;74.30;100027.03;4957779;28;19909;-68
2021/12/26 08:46:45;;;;;;;;;;;;;;;1.93;74.16;100019.75;4960085;28;19944;-68
2021/12/26 08:49:11;;;;;;;;;;;;;;;1.91;74.15;100019.84;4974846;28;20701;-68
2021/12/26 08:51:36;;;;;;;;;;;;;;;2.14;77.34;100015.72;4955636;28;20255;-68
2021/12/26 08:54:02;;;;;;;;;;;;;;;2.25;73.86;100028.09;4969140;28;19948;-70
2021/12/26 08:56:28;;;;;;;;;;;;;;;2.14;73.17;100022.72;4962578;28;19904;-68
2021/12/26 08:58:53;;;;;;;;;;;;;;;2.15;73.53;100029.63;4973986;28;19909;-69
2021/12/26 09:01:18;;;;;;;;;;;;;;;2.03;73.86;100026.88;4953964;28;19920;-67
2021/12/26 09:03:43;;;;;;;;;;;;;;;2.02;73.81;100027.81;4970991;28;19921;-67
2021/12/26 09:06:09;;;;;;;;;;;;;;;2.00;74.47;100032.31;4959555;28;20253;-67
2021/12/26 09:08:34;;;;;;;;;;;;;;;1.98;74.47;100030.72;4966467;28;20674;-67
2021/12/26 09:10:59;;;;;;;;;;;;;;;2.02;74.80;100035.66;4949647;28;20356;-68
2021/12/26 09:13:24;;;;;;;;;;;;;;;2.10;74.31;100039.53;4954565;28;20950;-67
2021/12/26 09:15:50;;;;;;;;;;;;;;;2.02;74.74;100040.88;4936106;28;19905;-67
2021/12/26 09:18:15;;;;;;;;;;;;;;;2.08;75.29;100044.03;4926476;28;19920;-68
2021/12/26 09:20:40;;;;;;;;;;;;;;;2.04;75.57;100040.75;4955133;28;19905;-68
2021/12/26 09:23:05;;;;;;;;;;;;;;;2.05;75.24;100045.06;4956247;28;19931;-67
2021/12/26 09:25:31;;;;;;;;;;;;;;;2.05;74.98;100053.72;4953529;28;19944;-68
2021/12/26 09:27:56;;;;;;;;;;;;;;;2.07;75.56;100048.38;4958278;28;20012;-67
2021/12/26 09:30:21;;;;;;;;;;;;;;;2.09;75.10;100056.13;4938224;28;19917;-68
2021/12/26 09:32:46;;;;;;;;;;;;;;;2.04;75.45;100052.03;4941188;28;19987;-67
2021/12/26 09:35:12;;;;;;;;;;;;;;;2.13;75.39;100057.59;4951049;28;20313;-66
2021/12/26 09:37:37;;;;;;;;;;;;;;;2.07;75.82;100048.38;4952385;28;19915;-67
2021/12/26 09:40:03;;;;;;;;;;;;;;;1.99;75.59;100054.13;4971340;28;20448;-67
2021/12/26 09:42:29;;;;;;;;;;;;;;;2.04;75.77;100045.97;4942565;28;20678;-68
2021/12/26 09:44:54;;;;;;;;;;;;;;;2.08;75.69;100051.84;4974860;28;20713;-68
2021/12/26 09:47:19;;;;;;;;;;;;;;;2.02;76.79;100046.09;4995236;28;20976;-67
2021/12/26 09:49:44;;;;;;;;;;;;;;;1.98;77.51;100049.81;4973879;28;19913;-68
2021/12/26 09:52:10;;;;;;;;;;;;;;;1.96;78.49;100048.25;4974305;28;19916;-68
2021/12/26 09:54:35;;;;;;;;;;;;;;;1.93;78.62;100044.06;4958917;28;20033;-68
2021/12/26 09:57:00;;;;;;;;;;;;;;;1.88;79.62;100040.91;4967337;28;20029;-68
2021/12/26 09:59:27;;;;;;;;;;;;;;;1.94;80.18;100048.34;4975709;28;19954;-67
2021/12/26 10:01:56;;;;;;;;;;;;;;;1.87;80.68;100034.03;4973714;28;19960;-67
2021/12/26 10:04:21;;;;;;;;;;;;;;;1.89;81.85;100040.00;4967687;28;19954;-68
2021/12/26 10:06:47;;;;;;;;;;;;;;;1.94;82.55;100043.13;4965539;28;20025;-68
2021/12/26 10:09:13;;;;;;;;;;;;;;;1.92;82.04;100037.19;4959137;28;20013;-68
2021/12/26 10:11:39;;;;;;;;;;;;;;;1.89;82.38;100035.59;4976438;28;19962;-67
2021/12/26 10:14:05;;;;;;;;;;;;;;;1.87;83.04;100032.25;4977772;28;20620;-68
2021/12/26 10:16:31;;;;;;;;;;;;;;;1.89;83.36;100034.78;4979069;28;20765;-68
2021/12/26 10:18:57;;;;;;;;;;;;;;;2.01;83.16;100028.75;4974528;28;19913;-67
2021/12/26 10:21:23;;;;;;;;;;;;;;;2.04;82.29;100025.09;4978716;28;19987;-68
2021/12/26 10:23:48;;;;;;;;;;;;;;;2.03;82.35;100020.81;4977550;28;19900;-67
2021/12/26 10:26:17;;;;;;;;;;;;;;;2.02;82.89;100013.94;4981944;28;19969;-67
2021/12/26 10:28:42;;;;;;;;;;;;;;;2.09;83.35;100019.56;4976456;28;20005;-68
2021/12/26 10:31:09;;;;;;;;;;;;;;;2.08;83.26;100012.72;4979153;28;20276;-68
2021/12/26 10:33:46;;;;;;;;;;;;;;;2.17;83.51;100004.25;4979758;28;19985;-66
2021/12/26 10:36:12;;;;;;;;;;;;;;;2.18;82.96;100005.94;4979708;28;19912;-68
2021/12/26 10:38:37;;;;;;;;;;;;;;;2.23;82.70;99993.44;4963913;28;19942;-67
2021/12/26 10:41:02;;;;;;;;;;;;;;;2.33;82.29;100009.31;4973185;28;20053;-68
2021/12/26 10:43:42;;;;;;;;;;;;;;;2.35;81.60;100000.41;4981109;28;19904;-68
2021/12/26 10:46:14;;;;;;;;;;;;;;;2.47;81.25;99990.09;4973411;28;19928;-68
2021/12/26 10:48:39;;;;;;;;;;;;;;;2.50;80.82;99987.28;4965644;28;20453;-67
2021/12/26 10:51:04;;;;;;;;;;;;;;;2.54;80.69;99988.75;4975654;28;20414;-70
2021/12/26 10:53:29;;;;;;;;;;;;;;;2.66;80.22;99985.28;4979393;28;20694;-67
2021/12/26 10:55:55;;;;;;;;;;;;;;;2.70;79.48;99983.31;4977659;28;20519;-66
2021/12/26 10:58:21;;;;;;;;;;;;;;;2.75;80.11;99981.25;4982542;28;20030;-67
2021/12/26 11:00:52;;;;;;;;;;;;;;;2.70;80.54;99983.31;4959859;28;21054;-67
2021/12/26 11:03:24;;;;;;;;;;;;;;;2.77;80.73;99983.75;4972974;28;20443;-67
2021/12/26 11:05:50;;;;;;;;;;;;;;;2.76;80.32;99982.88;4975187;28;20037;-67
2021/12/26 11:08:16;;;;;;;;;;;;;;;2.79;80.64;99982.66;4967160;28;19954;-68
2021/12/26 11:10:41;;;;;;;;;;;;;;;2.81;80.91;99977.38;4971575;28;20001;-68
2021/12/26 11:13:07;;;;;;;;;;;;;;;2.74;81.10;99974.34;4969096;28;20037;-67
2021/12/26 11:15:36;;;;;;;;;;;;;;;2.77;81.30;99975.91;4976349;28;19913;-67
2021/12/26 11:18:03;;;;;;;;;;;;;;;2.72;82.07;99976.19;4972791;28;19945;-67
2021/12/26 11:20:30;;;;;;;;;;;;;;;2.68;81.84;99970.38;4969786;28;20635;-67
2021/12/26 11:22:55;;;;;;;;;;;;;;;2.70;81.74;99968.47;4972298;28;19908;-67
2021/12/26 11:25:21;;;;;;;;;;;;;;;2.68;81.80;99972.97;4976028;28;20015;-67
2021/12/26 11:27:46;;;;;;;;;;;;;;;2.79;82.07;99967.00;4975776;28;20162;-67
2021/12/26 11:30:11;;;;;;;;;;;;;;;2.86;81.96;99964.81;4978865;28;19970;-67
2021/12/26 11:32:37;;;;;;;;;;;;;;;3.08;81.19;99956.31;4979932;28;20296;-67
2021/12/26 11:35:02;;;;;;;;;;;;;;;3.25;80.10;99953.31;4992435;28;20033;-68
2021/12/26 11:37:27;;;;;;;;;;;;;;;3.35;80.64;99947.44;4972397;28;20164;-66
2021/12/26 11:39:53;;;;;;;;;;;;;;;3.46;79.89;99954.53;4970138;28;19954;-68
2021/12/26 11:42:26;;;;;;;;;;;;;;;3.52;78.72;99951.47;4975304;28;20214;-67
2021/12/26 11:45:05;;;;;;;;;;;;;;;3.73;78.12;99947.28;4974942;28;19924;-67
2021/12/26 11:48:20;;;;;;;;;;;;;;;3.82;78.26;99944.94;4980036;28;19913;-68
2021/12/26 11:51:04;;;;;;;;;;;;;;;4.04;77.45;99944.19;4953326;28;19909;-67
2021/12/26 11:53:50;;;;;;;;;;;;;;;4.17;75.45;99944.91;4980783;28;19974;-66
2021/12/26 11:56:18;;;;;;;;;;;;;;;4.39;74.82;99954.63;4958340;28;19975;-67
2021/12/26 11:58:49;;;;;;;;;;;;;;;4.45;74.71;99948.06;4962527;28;20006;-68
2021/12/26 12:01:15;;;;;;;;;;;;;;;4.44;75.17;99956.88;4958660;28;19965;-67
2021/12/26 12:03:40;;;;;;;;;;;;;;;4.37;74.77;99948.66;4956600;28;20025;-68
2021/12/26 12:06:05;;;;;;;;;;;;;;;4.24;74.84;99950.53;4972612;28;19977;-67
2021/12/26 12:08:34;;;;;;;;;;;;;;;4.13;75.00;99938.22;4972460;28;19909;-68
2021/12/26 12:10:59;;;;;;;;;;;;;;;3.91;74.65;99933.78;4974214;28;20832;-68
2021/12/26 12:13:25;;;;;;;;;;;;;;;3.83;76.26;99936.97;4978802;28;19925;-68
2021/12/26 12:15:54;;;;;;;;;;;;;;;3.82;76.35;99939.69;4978543;28;19904;-68
2021/12/26 12:18:21;;;;;;;;;;;;;;;3.83;75.94;99941.38;4977007;28;19908;-67
2021/12/26 12:20:47;;;;;;;;;;;;;;;3.82;76.71;99939.69;4978923;28;20317;-69
2021/12/26 12:23:14;;;;;;;;;;;;;;;3.64;75.98;99927.03;4974485;28;20729;-69
2021/12/26 12:25:40;;;;;;;;;;;;;;;3.61;76.41;99924.66;4996633;28;19912;-69
2021/12/26 12:28:06;;;;;;;;;;;;;;;3.59;76.35;99929.97;4982361;28;19916;-69
2021/12/26 12:30:31;;;;;;;;;;;;;;;3.61;77.15;99925.47;4976758;28;19909;-68
2021/12/26 12:33:10;;;;;;;;;;;;;;;3.64;77.59;99927.03;4979440;28;19920;-68
2021/12/26 12:35:48;;;;;;;;;;;;;;;3.64;76.93;99920.94;4980485;28;19953;-66
2021/12/26 12:38:20;;;;;;;;;;;;;;;3.57;76.30;99925.81;4974994;28;19909;-68
2021/12/26 12:40:45;;;;;;;;;;;;;;;3.56;76.95;99911.88;4973092;28;19916;-69
2021/12/26 12:43:18;;;;;;;;;;;;;;;3.54;77.50;99915.53;4988518;28;19908;-67